sensor_id;sensor_type;location;lat;lon;timestamp;temperature;humidity
34766;DHT22;20984;43.508;1.504;2023-05-10T00:00:50;13.00;99.90
34766;DHT22;20984;43.508;1.504;2023-05-10T00:03:16;13.00;99.90
34766;DHT22;20984;43.508;1.504;2023-05-10T00:05:42;12.90;99.90
34766;DHT22;20984;43.508;1.504;2023-05-10T00:08:08;12.90;99.90
34766;DHT22;20984;43.508;1.504;2023-05-10T00:10:34;12.90;99.90
34766;DHT22;20984;43.508;1.504;2023-05-10T00:12:59;12.80;99.90
34766;DHT22;20984;43.508;1.504;2023-05-10T00:15:25;12.80;99.90
34766;DHT22;20984;43.508;1.504;2023-05-10T00:17:51;12.70;99.90
34766;DHT22;20984;43.508;1.504;2023-05-10T00:20:16;12.70;99.90
34766;DHT22;20984;43.508;1.504;2023-05-10T00:22:42;12.70;99.90
34766;DHT22;20984;43.508;1.504;2023-05-10T00:25:08;12.60;99.90
34766;DHT22;20984;43.508;1.504;2023-05-10T00:27:34;12.60;99.90
34766;DHT22;20984;43.508;1.504;2023-05-10T00:30:00;12.60;99.90
34766;DHT22;20984;43.508;1.504;2023-05-10T00:32:25;12.50;99.90
34766;DHT22;20984;43.508;1.504;2023-05-10T00:34:51;12.50;99.90
34766;DHT22;20984;43.508;1.504;2023-05-10T00:37:17;12.50;99.90
34766;DHT22;20984;43.508;1.504;2023-05-10T00:39:43;12.40;99.90
34766;DHT22;20984;43.508;1.504;2023-05-10T00:42:08;12.40;99.90
34766;DHT22;20984;43.508;1.504;2023-05-10T00:44:34;12.40;99.90
34766;DHT22;20984;43.508;1.504;2023-05-10T00:47:00;12.40;99.90
34766;DHT22;20984;43.508;1.504;2023-05-10T00:49:26;12.40;99.90
34766;DHT22;20984;43.508;1.504;2023-05-10T00:51:51;12.30;99.90
34766;DHT22;20984;43.508;1.504;2023-05-10T00:54:17;12.40;99.90
34766;DHT22;20984;43.508;1.504;2023-05-10T00:56:43;12.40;99.90
34766;DHT22;20984;43.508;1.504;2023-05-10T00:59:14;12.40;99.90
34766;DHT22;20984;43.508;1.504;2023-05-10T01:01:40;12.40;99.90
34766;DHT22;20984;43.508;1.504;2023-05-10T01:04:05;12.50;99.90
34766;DHT22;20984;43.508;1.504;2023-05-10T01:06:31;12.50;99.90
34766;DHT22;20984;43.508;1.504;2023-05-10T01:08:57;12.60;99.90
34766;DHT22;20984;43.508;1.504;2023-05-10T01:11:23;12.60;99.90
34766;DHT22;20984;43.508;1.504;2023-05-10T01:13:55;12.60;99.90
34766;DHT22;20984;43.508;1.504;2023-05-10T01:16:22;12.60;99.90
34766;DHT22;20984;43.508;1.504;2023-05-10T01:18:48;12.60;99.90
34766;DHT22;20984;43.508;1.504;2023-05-10T01:32:40;12.60;99.90
34766;DHT22;20984;43.508;1.504;2023-05-10T01:37:41;12.60;99.90
34766;DHT22;20984;43.508;1.504;2023-05-10T01:42:51;12.50;99.90
34766;DHT22;20984;43.508;1.504;2023-05-10T01:45:27;12.50;99.90
34766;DHT22;20984;43.508;1.504;2023-05-10T01:48:09;12.40;99.90
34766;DHT22;20984;43.508;1.504;2023-05-10T01:50:38;12.40;99.90
34766;DHT22;20984;43.508;1.504;2023-05-10T01:53:08;12.40;99.90
34766;DHT22;20984;43.508;1.504;2023-05-10T01:55:49;12.30;99.90
34766;DHT22;20984;43.508;1.504;2023-05-10T01:58:29;12.30;99.90
34766;DHT22;20984;43.508;1.504;2023-05-10T02:00:58;12.20;99.90
34766;DHT22;20984;43.508;1.504;2023-05-10T02:03:27;12.10;99.90
34766;DHT22;20984;43.508;1.504;2023-05-10T02:05:54;12.10;99.90
34766;DHT22;20984;43.508;1.504;2023-05-10T02:08:22;12.10;99.90
34766;DHT22;20984;43.508;1.504;2023-05-10T02:10:50;12.00;99.90
34766;DHT22;20984;43.508;1.504;2023-05-10T02:13:18;12.00;99.90
34766;DHT22;20984;43.508;1.504;2023-05-10T02:15:46;12.00;99.90
34766;DHT22;20984;43.508;1.504;2023-05-10T02:18:13;11.90;99.90
34766;DHT22;20984;43.508;1.504;2023-05-10T02:20:41;12.00;99.90
34766;DHT22;20984;43.508;1.504;2023-05-10T02:23:08;12.00;99.90
34766;DHT22;20984;43.508;1.504;2023-05-10T02:25:35;12.00;99.90
34766;DHT22;20984;43.508;1.504;2023-05-10T02:28:05;12.00;99.90
34766;DHT22;20984;43.508;1.504;2023-05-10T02:30:33;12.10;99.90
34766;DHT22;20984;43.508;1.504;2023-05-10T02:33:01;12.10;99.90
34766;DHT22;20984;43.508;1.504;2023-05-10T02:35:28;12.10;99.90
34766;DHT22;20984;43.508;1.504;2023-05-10T02:37:56;12.10;99.90
34766;DHT22;20984;43.508;1.504;2023-05-10T02:40:24;12.10;99.90
34766;DHT22;20984;43.508;1.504;2023-05-10T02:42:52;12.10;99.90
34766;DHT22;20984;43.508;1.504;2023-05-10T02:45:23;12.10;99.90
34766;DHT22;20984;43.508;1.504;2023-05-10T02:47:50;12.10;99.90
34766;DHT22;20984;43.508;1.504;2023-05-10T02:50:16;12.00;99.90
34766;DHT22;20984;43.508;1.504;2023-05-10T02:52:47;12.10;99.90
34766;DHT22;20984;43.508;1.504;2023-05-10T02:55:16;12.00;99.90
34766;DHT22;20984;43.508;1.504;2023-05-10T02:57:50;12.00;99.90
34766;DHT22;20984;43.508;1.504;2023-05-10T03:00:16;12.00;99.90
34766;DHT22;20984;43.508;1.504;2023-05-10T03:02:42;12.10;99.90
34766;DHT22;20984;43.508;1.504;2023-05-10T03:05:08;12.10;99.90
34766;DHT22;20984;43.508;1.504;2023-05-10T03:07:34;12.10;99.90
34766;DHT22;20984;43.508;1.504;2023-05-10T03:10:00;12.10;99.90
34766;DHT22;20984;43.508;1.504;2023-05-10T03:18:22;12.10;99.90
34766;DHT22;20984;43.508;1.504;2023-05-10T03:20:50;12.10;99.90
34766;DHT22;20984;43.508;1.504;2023-05-10T03:23:35;12.10;99.90
34766;DHT22;20984;43.508;1.504;2023-05-10T03:26:04;12.10;99.90
34766;DHT22;20984;43.508;1.504;2023-05-10T03:28:31;12.10;99.90
34766;DHT22;20984;43.508;1.504;2023-05-10T03:30:59;12.10;99.90
34766;DHT22;20984;43.508;1.504;2023-05-10T03:33:25;11.80;99.90
34766;DHT22;20984;43.508;1.504;2023-05-10T03:35:50;11.50;99.90
34766;DHT22;20984;43.508;1.504;2023-05-10T03:38:16;11.30;99.90
34766;DHT22;20984;43.508;1.504;2023-05-10T03:40:42;11.20;99.90
34766;DHT22;20984;43.508;1.504;2023-05-10T03:43:07;11.20;99.90
34766;DHT22;20984;43.508;1.504;2023-05-10T03:45:33;11.10;99.90
34766;DHT22;20984;43.508;1.504;2023-05-10T03:47:59;11.10;99.90
34766;DHT22;20984;43.508;1.504;2023-05-10T03:50:24;11.10;99.90
34766;DHT22;20984;43.508;1.504;2023-05-10T03:52:52;11.10;99.90
34766;DHT22;20984;43.508;1.504;2023-05-10T03:55:18;11.10;99.90
34766;DHT22;20984;43.508;1.504;2023-05-10T03:57:43;11.10;99.90
34766;DHT22;20984;43.508;1.504;2023-05-10T04:00:09;11.00;99.90
34766;DHT22;20984;43.508;1.504;2023-05-10T04:02:35;11.00;99.90
34766;DHT22;20984;43.508;1.504;2023-05-10T04:05:01;11.00;99.90
34766;DHT22;20984;43.508;1.504;2023-05-10T04:07:27;11.10;99.90
34766;DHT22;20984;43.508;1.504;2023-05-10T04:09:53;11.10;99.90
34766;DHT22;20984;43.508;1.504;2023-05-10T04:12:19;11.10;99.90
34766;DHT22;20984;43.508;1.504;2023-05-10T04:14:45;11.10;99.90
34766;DHT22;20984;43.508;1.504;2023-05-10T04:17:10;11.10;99.90
34766;DHT22;20984;43.508;1.504;2023-05-10T04:19:36;11.10;99.90
34766;DHT22;20984;43.508;1.504;2023-05-10T04:22:02;11.10;99.90
34766;DHT22;20984;43.508;1.504;2023-05-10T04:24:28;11.10;99.90
34766;DHT22;20984;43.508;1.504;2023-05-10T04:26:54;11.10;99.90
34766;DHT22;20984;43.508;1.504;2023-05-10T04:29:20;11.10;99.90
34766;DHT22;20984;43.508;1.504;2023-05-10T04:31:46;11.00;99.90
34766;DHT22;20984;43.508;1.504;2023-05-10T04:34:12;11.10;99.90
34766;DHT22;20984;43.508;1.504;2023-05-10T04:36:37;11.10;99.90
34766;DHT22;20984;43.508;1.504;2023-05-10T04:39:03;11.10;99.90
34766;DHT22;20984;43.508;1.504;2023-05-10T04:41:29;11.00;99.90
34766;DHT22;20984;43.508;1.504;2023-05-10T04:43:55;11.10;99.90
34766;DHT22;20984;43.508;1.504;2023-05-10T04:46:21;11.00;99.90
34766;DHT22;20984;43.508;1.504;2023-05-10T04:48:47;11.00;99.90
34766;DHT22;20984;43.508;1.504;2023-05-10T04:51:12;11.00;99.90
34766;DHT22;20984;43.508;1.504;2023-05-10T04:53:38;11.00;99.90
34766;DHT22;20984;43.508;1.504;2023-05-10T04:56:04;11.00;99.90
34766;DHT22;20984;43.508;1.504;2023-05-10T04:58:30;11.00;99.90
34766;DHT22;20984;43.508;1.504;2023-05-10T05:00:55;11.00;99.90
34766;DHT22;20984;43.508;1.504;2023-05-10T05:03:21;11.00;99.90
34766;DHT22;20984;43.508;1.504;2023-05-10T05:05:47;11.00;99.90
34766;DHT22;20984;43.508;1.504;2023-05-10T05:08:13;11.00;99.90
34766;DHT22;20984;43.508;1.504;2023-05-10T05:10:39;10.90;99.90
34766;DHT22;20984;43.508;1.504;2023-05-10T05:13:04;10.90;99.90
34766;DHT22;20984;43.508;1.504;2023-05-10T05:15:30;10.90;99.90
34766;DHT22;20984;43.508;1.504;2023-05-10T05:17:56;10.90;99.90
34766;DHT22;20984;43.508;1.504;2023-05-10T05:20:22;10.90;99.90
34766;DHT22;20984;43.508;1.504;2023-05-10T05:22:48;10.90;99.90
34766;DHT22;20984;43.508;1.504;2023-05-10T05:25:14;10.90;99.90
34766;DHT22;20984;43.508;1.504;2023-05-10T05:27:41;10.90;99.90
34766;DHT22;20984;43.508;1.504;2023-05-10T05:30:07;10.90;99.90
34766;DHT22;20984;43.508;1.504;2023-05-10T05:32:33;10.90;99.90
34766;DHT22;20984;43.508;1.504;2023-05-10T05:34:59;10.90;99.90
34766;DHT22;20984;43.508;1.504;2023-05-10T05:37:25;11.00;99.90
34766;DHT22;20984;43.508;1.504;2023-05-10T05:39:51;11.10;99.90
34766;DHT22;20984;43.508;1.504;2023-05-10T05:42:16;11.10;99.90
34766;DHT22;20984;43.508;1.504;2023-05-10T05:44:44;11.20;99.90
34766;DHT22;20984;43.508;1.504;2023-05-10T05:47:10;11.20;99.90
34766;DHT22;20984;43.508;1.504;2023-05-10T05:49:36;11.20;99.90
34766;DHT22;20984;43.508;1.504;2023-05-10T05:52:03;11.20;99.90
34766;DHT22;20984;43.508;1.504;2023-05-10T05:54:29;11.20;99.90
34766;DHT22;20984;43.508;1.504;2023-05-10T05:56:56;11.30;99.90
34766;DHT22;20984;43.508;1.504;2023-05-10T05:59:22;11.30;99.90
34766;DHT22;20984;43.508;1.504;2023-05-10T06:01:47;11.40;99.90
34766;DHT22;20984;43.508;1.504;2023-05-10T06:04:13;11.50;99.90
34766;DHT22;20984;43.508;1.504;2023-05-10T06:06:39;11.60;99.90
34766;DHT22;20984;43.508;1.504;2023-05-10T06:09:04;11.60;99.90
34766;DHT22;20984;43.508;1.504;2023-05-10T06:11:30;11.50;99.90
34766;DHT22;20984;43.508;1.504;2023-05-10T06:13:58;11.50;99.90
34766;DHT22;20984;43.508;1.504;2023-05-10T06:16:23;11.40;99.90
34766;DHT22;20984;43.508;1.504;2023-05-10T06:18:49;11.40;99.90
34766;DHT22;20984;43.508;1.504;2023-05-10T06:21:15;11.40;99.90
34766;DHT22;20984;43.508;1.504;2023-05-10T06:23:41;11.50;99.90
34766;DHT22;20984;43.508;1.504;2023-05-10T06:26:07;11.50;99.90
34766;DHT22;20984;43.508;1.504;2023-05-10T06:28:33;11.60;99.90
34766;DHT22;20984;43.508;1.504;2023-05-10T06:30:59;11.70;99.90
34766;DHT22;20984;43.508;1.504;2023-05-10T06:33:25;11.80;99.90
34766;DHT22;20984;43.508;1.504;2023-05-10T06:35:51;11.80;99.90
34766;DHT22;20984;43.508;1.504;2023-05-10T06:38:17;11.80;99.90
34766;DHT22;20984;43.508;1.504;2023-05-10T06:40:43;11.80;99.90
34766;DHT22;20984;43.508;1.504;2023-05-10T06:43:09;11.70;99.90
34766;DHT22;20984;43.508;1.504;2023-05-10T06:45:35;11.70;99.90
34766;DHT22;20984;43.508;1.504;2023-05-10T06:48:01;11.60;99.90
34766;DHT22;20984;43.508;1.504;2023-05-10T06:50:26;11.70;99.90
34766;DHT22;20984;43.508;1.504;2023-05-10T06:52:52;11.80;99.90
34766;DHT22;20984;43.508;1.504;2023-05-10T06:55:18;11.90;99.90
34766;DHT22;20984;43.508;1.504;2023-05-10T06:57:43;12.00;99.90
34766;DHT22;20984;43.508;1.504;2023-05-10T07:00:09;12.10;99.90
34766;DHT22;20984;43.508;1.504;2023-05-10T07:02:35;12.30;99.90
34766;DHT22;20984;43.508;1.504;2023-05-10T07:05:02;12.40;99.90
34766;DHT22;20984;43.508;1.504;2023-05-10T07:07:28;12.50;99.90
34766;DHT22;20984;43.508;1.504;2023-05-10T07:09:54;12.70;99.90
34766;DHT22;20984;43.508;1.504;2023-05-10T07:12:21;12.80;99.90
34766;DHT22;20984;43.508;1.504;2023-05-10T07:14:47;12.90;99.90
34766;DHT22;20984;43.508;1.504;2023-05-10T07:17:13;13.00;99.90
34766;DHT22;20984;43.508;1.504;2023-05-10T07:19:38;13.30;99.90
34766;DHT22;20984;43.508;1.504;2023-05-10T07:22:04;13.40;99.90
34766;DHT22;20984;43.508;1.504;2023-05-10T07:24:30;13.50;99.90
34766;DHT22;20984;43.508;1.504;2023-05-10T07:26:56;13.60;99.90
34766;DHT22;20984;43.508;1.504;2023-05-10T07:29:22;13.70;99.90
34766;DHT22;20984;43.508;1.504;2023-05-10T07:31:47;13.70;99.90
34766;DHT22;20984;43.508;1.504;2023-05-10T07:34:13;13.80;99.90
34766;DHT22;20984;43.508;1.504;2023-05-10T07:36:39;13.70;99.90
34766;DHT22;20984;43.508;1.504;2023-05-10T07:39:04;13.60;99.90
34766;DHT22;20984;43.508;1.504;2023-05-10T07:41:30;13.60;99.90
34766;DHT22;20984;43.508;1.504;2023-05-10T07:43:56;13.50;99.90
34766;DHT22;20984;43.508;1.504;2023-05-10T07:46:22;13.50;99.90
34766;DHT22;20984;43.508;1.504;2023-05-10T07:48:47;13.50;99.90
34766;DHT22;20984;43.508;1.504;2023-05-10T07:51:13;13.60;99.90
34766;DHT22;20984;43.508;1.504;2023-05-10T07:53:39;13.60;99.90
34766;DHT22;20984;43.508;1.504;2023-05-10T07:56:28;13.60;99.90
34766;DHT22;20984;43.508;1.504;2023-05-10T07:58:58;13.50;99.90
34766;DHT22;20984;43.508;1.504;2023-05-10T08:01:25;13.50;99.90
34766;DHT22;20984;43.508;1.504;2023-05-10T08:03:51;13.50;99.90
34766;DHT22;20984;43.508;1.504;2023-05-10T08:06:17;13.50;99.90
34766;DHT22;20984;43.508;1.504;2023-05-10T08:08:43;13.60;99.90
34766;DHT22;20984;43.508;1.504;2023-05-10T08:11:14;13.70;99.90
34766;DHT22;20984;43.508;1.504;2023-05-10T08:13:40;14.00;99.90
34766;DHT22;20984;43.508;1.504;2023-05-10T08:16:06;14.00;99.90
34766;DHT22;20984;43.508;1.504;2023-05-10T08:18:32;14.20;99.90
34766;DHT22;20984;43.508;1.504;2023-05-10T08:20:58;14.40;99.90
34766;DHT22;20984;43.508;1.504;2023-05-10T08:23:23;14.80;99.90
34766;DHT22;20984;43.508;1.504;2023-05-10T08:25:49;14.70;99.90
34766;DHT22;20984;43.508;1.504;2023-05-10T08:28:15;14.60;99.90
34766;DHT22;20984;43.508;1.504;2023-05-10T08:30:40;14.40;99.90
34766;DHT22;20984;43.508;1.504;2023-05-10T08:33:06;14.30;99.90
34766;DHT22;20984;43.508;1.504;2023-05-10T08:35:32;14.10;99.90
34766;DHT22;20984;43.508;1.504;2023-05-10T08:37:58;14.10;99.90
34766;DHT22;20984;43.508;1.504;2023-05-10T08:40:24;14.20;99.90
34766;DHT22;20984;43.508;1.504;2023-05-10T08:43:14;14.30;99.90
34766;DHT22;20984;43.508;1.504;2023-05-10T08:45:43;14.40;99.90
34766;DHT22;20984;43.508;1.504;2023-05-10T08:48:12;14.70;99.90
34766;DHT22;20984;43.508;1.504;2023-05-10T08:50:39;14.80;99.90
34766;DHT22;20984;43.508;1.504;2023-05-10T08:53:09;15.10;99.90
34766;DHT22;20984;43.508;1.504;2023-05-10T08:55:36;15.40;99.90
34766;DHT22;20984;43.508;1.504;2023-05-10T08:58:06;15.40;99.90
34766;DHT22;20984;43.508;1.504;2023-05-10T09:00:32;15.10;99.90
34766;DHT22;20984;43.508;1.504;2023-05-10T09:02:59;15.00;99.90
34766;DHT22;20984;43.508;1.504;2023-05-10T09:05:25;14.90;99.90
34766;DHT22;20984;43.508;1.504;2023-05-10T09:07:50;14.80;99.90
34766;DHT22;20984;43.508;1.504;2023-05-10T09:10:16;15.00;99.90
34766;DHT22;20984;43.508;1.504;2023-05-10T09:12:43;15.20;99.90
34766;DHT22;20984;43.508;1.504;2023-05-10T09:15:10;15.40;99.90
34766;DHT22;20984;43.508;1.504;2023-05-10T09:17:36;15.50;99.90
34766;DHT22;20984;43.508;1.504;2023-05-10T09:20:04;15.50;99.90
34766;DHT22;20984;43.508;1.504;2023-05-10T09:22:30;15.40;99.90
34766;DHT22;20984;43.508;1.504;2023-05-10T09:25:12;15.20;99.90
34766;DHT22;20984;43.508;1.504;2023-05-10T09:27:39;15.20;99.90
34766;DHT22;20984;43.508;1.504;2023-05-10T09:30:06;15.30;99.90
34766;DHT22;20984;43.508;1.504;2023-05-10T09:32:43;15.50;99.90
34766;DHT22;20984;43.508;1.504;2023-05-10T09:35:14;15.70;99.90
34766;DHT22;20984;43.508;1.504;2023-05-10T09:37:44;15.90;99.90
34766;DHT22;20984;43.508;1.504;2023-05-10T09:40:12;16.10;99.90
34766;DHT22;20984;43.508;1.504;2023-05-10T09:42:38;16.10;99.90
34766;DHT22;20984;43.508;1.504;2023-05-10T09:45:05;16.20;99.90
34766;DHT22;20984;43.508;1.504;2023-05-10T09:47:33;16.40;99.90
34766;DHT22;20984;43.508;1.504;2023-05-10T09:49:59;16.40;99.90
34766;DHT22;20984;43.508;1.504;2023-05-10T09:55:14;16.20;99.90
34766;DHT22;20984;43.508;1.504;2023-05-10T09:57:40;16.10;99.90
34766;DHT22;20984;43.508;1.504;2023-05-10T10:00:07;16.20;99.90
34766;DHT22;20984;43.508;1.504;2023-05-10T10:02:33;15.90;99.90
34766;DHT22;20984;43.508;1.504;2023-05-10T10:05:01;15.60;99.90
34766;DHT22;20984;43.508;1.504;2023-05-10T10:07:28;15.10;99.90
34766;DHT22;20984;43.508;1.504;2023-05-10T10:09:55;14.80;99.90
34766;DHT22;20984;43.508;1.504;2023-05-10T10:12:20;14.80;99.90
34766;DHT22;20984;43.508;1.504;2023-05-10T10:14:47;15.00;99.90
34766;DHT22;20984;43.508;1.504;2023-05-10T10:17:13;15.20;99.90
34766;DHT22;20984;43.508;1.504;2023-05-10T10:19:40;15.60;99.90
34766;DHT22;20984;43.508;1.504;2023-05-10T10:22:06;16.00;99.90
34766;DHT22;20984;43.508;1.504;2023-05-10T10:24:32;16.20;99.90
34766;DHT22;20984;43.508;1.504;2023-05-10T10:27:21;16.10;99.90
34766;DHT22;20984;43.508;1.504;2023-05-10T10:35:14;15.60;99.90
34766;DHT22;20984;43.508;1.504;2023-05-10T10:37:48;15.60;99.90
34766;DHT22;20984;43.508;1.504;2023-05-10T10:40:25;15.70;99.90
34766;DHT22;20984;43.508;1.504;2023-05-10T10:42:51;15.80;99.90
34766;DHT22;20984;43.508;1.504;2023-05-10T10:45:19;15.90;99.90
34766;DHT22;20984;43.508;1.504;2023-05-10T10:47:45;15.90;99.90
34766;DHT22;20984;43.508;1.504;2023-05-10T10:50:11;16.10;99.90
34766;DHT22;20984;43.508;1.504;2023-05-10T10:52:42;16.00;99.90
34766;DHT22;20984;43.508;1.504;2023-05-10T10:55:13;16.10;99.90
34766;DHT22;20984;43.508;1.504;2023-05-10T10:57:52;16.30;99.90
34766;DHT22;20984;43.508;1.504;2023-05-10T11:00:49;16.40;99.90
34766;DHT22;20984;43.508;1.504;2023-05-10T11:03:15;16.50;99.90
34766;DHT22;20984;43.508;1.504;2023-05-10T11:05:47;16.70;99.90
34766;DHT22;20984;43.508;1.504;2023-05-10T11:08:26;16.90;99.90
34766;DHT22;20984;43.508;1.504;2023-05-10T11:13:32;17.50;99.90
34766;DHT22;20984;43.508;1.504;2023-05-10T11:15:58;18.00;99.90
34766;DHT22;20984;43.508;1.504;2023-05-10T11:18:27;17.90;99.90
34766;DHT22;20984;43.508;1.504;2023-05-10T11:20:55;17.60;99.90
34766;DHT22;20984;43.508;1.504;2023-05-10T11:23:21;17.10;99.90
34766;DHT22;20984;43.508;1.504;2023-05-10T11:25:48;16.90;99.90
34766;DHT22;20984;43.508;1.504;2023-05-10T11:28:17;16.80;99.90
34766;DHT22;20984;43.508;1.504;2023-05-10T11:30:44;16.70;99.90
34766;DHT22;20984;43.508;1.504;2023-05-10T11:33:15;16.50;99.90
34766;DHT22;20984;43.508;1.504;2023-05-10T11:35:41;16.20;99.90
34766;DHT22;20984;43.508;1.504;2023-05-10T11:38:11;15.70;99.90
34766;DHT22;20984;43.508;1.504;2023-05-10T11:40:38;15.40;99.90
34766;DHT22;20984;43.508;1.504;2023-05-10T11:43:04;15.20;99.90
34766;DHT22;20984;43.508;1.504;2023-05-10T11:45:34;15.10;99.90
34766;DHT22;20984;43.508;1.504;2023-05-10T11:48:01;15.10;99.90
34766;DHT22;20984;43.508;1.504;2023-05-10T11:50:27;14.90;99.90
34766;DHT22;20984;43.508;1.504;2023-05-10T11:52:56;14.50;99.90
34766;DHT22;20984;43.508;1.504;2023-05-10T11:55:23;14.30;99.90
34766;DHT22;20984;43.508;1.504;2023-05-10T11:57:54;14.50;99.90
34766;DHT22;20984;43.508;1.504;2023-05-10T12:00:20;14.80;99.90
34766;DHT22;20984;43.508;1.504;2023-05-10T12:02:46;15.10;99.90
34766;DHT22;20984;43.508;1.504;2023-05-10T12:05:11;15.30;99.90
34766;DHT22;20984;43.508;1.504;2023-05-10T12:07:37;15.70;99.90
34766;DHT22;20984;43.508;1.504;2023-05-10T12:10:08;15.90;99.90
34766;DHT22;20984;43.508;1.504;2023-05-10T12:12:43;16.20;99.90
34766;DHT22;20984;43.508;1.504;2023-05-10T12:15:26;16.40;99.90
34766;DHT22;20984;43.508;1.504;2023-05-10T12:17:53;16.50;99.90
34766;DHT22;20984;43.508;1.504;2023-05-10T12:20:23;16.70;99.90
34766;DHT22;20984;43.508;1.504;2023-05-10T12:22:50;16.90;99.90
34766;DHT22;20984;43.508;1.504;2023-05-10T12:25:20;16.80;99.90
34766;DHT22;20984;43.508;1.504;2023-05-10T12:27:51;16.90;99.90
34766;DHT22;20984;43.508;1.504;2023-05-10T12:30:28;17.00;99.90
34766;DHT22;20984;43.508;1.504;2023-05-10T12:32:59;17.20;99.90
34766;DHT22;20984;43.508;1.504;2023-05-10T12:35:25;17.40;99.90
34766;DHT22;20984;43.508;1.504;2023-05-10T12:37:51;17.50;99.90
34766;DHT22;20984;43.508;1.504;2023-05-10T12:40:17;17.50;99.90
34766;DHT22;20984;43.508;1.504;2023-05-10T12:42:42;17.30;99.90
34766;DHT22;20984;43.508;1.504;2023-05-10T12:45:11;17.10;99.90
34766;DHT22;20984;43.508;1.504;2023-05-10T12:47:37;16.90;99.90
34766;DHT22;20984;43.508;1.504;2023-05-10T12:50:03;16.90;99.90
34766;DHT22;20984;43.508;1.504;2023-05-10T12:52:30;16.70;99.90
34766;DHT22;20984;43.508;1.504;2023-05-10T12:54:57;16.60;99.90
34766;DHT22;20984;43.508;1.504;2023-05-10T12:57:22;16.80;99.90
34766;DHT22;20984;43.508;1.504;2023-05-10T12:59:48;16.90;99.90
34766;DHT22;20984;43.508;1.504;2023-05-10T13:02:15;17.10;99.90
34766;DHT22;20984;43.508;1.504;2023-05-10T13:04:44;17.20;99.90
34766;DHT22;20984;43.508;1.504;2023-05-10T13:07:09;17.30;99.90
34766;DHT22;20984;43.508;1.504;2023-05-10T13:09:35;17.20;99.90
34766;DHT22;20984;43.508;1.504;2023-05-10T13:12:01;17.50;99.90
34766;DHT22;20984;43.508;1.504;2023-05-10T13:14:27;17.40;99.90
34766;DHT22;20984;43.508;1.504;2023-05-10T13:16:53;17.40;99.90
34766;DHT22;20984;43.508;1.504;2023-05-10T13:19:19;17.60;99.90
34766;DHT22;20984;43.508;1.504;2023-05-10T13:21:45;17.70;99.90
34766;DHT22;20984;43.508;1.504;2023-05-10T13:24:11;17.70;99.90
34766;DHT22;20984;43.508;1.504;2023-05-10T13:26:42;17.80;99.90
34766;DHT22;20984;43.508;1.504;2023-05-10T13:29:07;17.90;99.90
34766;DHT22;20984;43.508;1.504;2023-05-10T13:31:33;18.10;99.90
34766;DHT22;20984;43.508;1.504;2023-05-10T13:33:59;18.00;99.90
34766;DHT22;20984;43.508;1.504;2023-05-10T13:36:25;18.30;99.90
34766;DHT22;20984;43.508;1.504;2023-05-10T13:38:50;18.50;99.90
34766;DHT22;20984;43.508;1.504;2023-05-10T13:41:16;18.40;99.90
34766;DHT22;20984;43.508;1.504;2023-05-10T13:43:42;18.50;99.90
34766;DHT22;20984;43.508;1.504;2023-05-10T13:46:07;18.60;99.90
34766;DHT22;20984;43.508;1.504;2023-05-10T13:48:33;18.30;99.90
34766;DHT22;20984;43.508;1.504;2023-05-10T13:50:59;18.40;99.90
34766;DHT22;20984;43.508;1.504;2023-05-10T13:53:24;18.60;99.90
34766;DHT22;20984;43.508;1.504;2023-05-10T13:55:50;18.80;99.90
34766;DHT22;20984;43.508;1.504;2023-05-10T13:58:16;18.90;99.90
34766;DHT22;20984;43.508;1.504;2023-05-10T14:00:41;18.60;99.30
34766;DHT22;20984;43.508;1.504;2023-05-10T14:03:07;18.50;99.90
34766;DHT22;20984;43.508;1.504;2023-05-10T14:05:34;18.50;99.90
34766;DHT22;20984;43.508;1.504;2023-05-10T14:08:00;18.60;99.90
34766;DHT22;20984;43.508;1.504;2023-05-10T14:10:25;18.60;99.90
34766;DHT22;20984;43.508;1.504;2023-05-10T14:12:51;18.50;99.90
34766;DHT22;20984;43.508;1.504;2023-05-10T14:15:17;18.40;99.90
34766;DHT22;20984;43.508;1.504;2023-05-10T14:17:42;18.50;99.90
34766;DHT22;20984;43.508;1.504;2023-05-10T14:20:08;18.50;99.90
34766;DHT22;20984;43.508;1.504;2023-05-10T14:22:34;18.30;99.90
34766;DHT22;20984;43.508;1.504;2023-05-10T14:25:00;17.80;99.90
34766;DHT22;20984;43.508;1.504;2023-05-10T14:27:26;17.70;99.90
34766;DHT22;20984;43.508;1.504;2023-05-10T14:29:52;17.10;99.90
34766;DHT22;20984;43.508;1.504;2023-05-10T14:32:18;16.90;99.90
34766;DHT22;20984;43.508;1.504;2023-05-10T14:34:44;16.90;99.90
34766;DHT22;20984;43.508;1.504;2023-05-10T14:37:10;16.70;99.90
34766;DHT22;20984;43.508;1.504;2023-05-10T14:39:36;16.50;99.90
34766;DHT22;20984;43.508;1.504;2023-05-10T14:42:03;16.30;99.90
34766;DHT22;20984;43.508;1.504;2023-05-10T14:44:29;15.60;99.90
34766;DHT22;20984;43.508;1.504;2023-05-10T14:46:54;15.20;99.90
34766;DHT22;20984;43.508;1.504;2023-05-10T14:49:21;15.00;99.90
34766;DHT22;20984;43.508;1.504;2023-05-10T14:51:48;14.90;99.90
34766;DHT22;20984;43.508;1.504;2023-05-10T14:54:14;14.90;99.90
34766;DHT22;20984;43.508;1.504;2023-05-10T14:56:39;15.00;99.90
34766;DHT22;20984;43.508;1.504;2023-05-10T14:59:07;15.10;99.90
34766;DHT22;20984;43.508;1.504;2023-05-10T15:01:33;15.20;99.90
34766;DHT22;20984;43.508;1.504;2023-05-10T15:04:00;15.30;99.90
34766;DHT22;20984;43.508;1.504;2023-05-10T15:06:34;15.50;99.90
34766;DHT22;20984;43.508;1.504;2023-05-10T15:09:00;15.80;99.90
34766;DHT22;20984;43.508;1.504;2023-05-10T15:11:27;16.20;99.90
34766;DHT22;20984;43.508;1.504;2023-05-10T15:13:53;16.50;99.90
34766;DHT22;20984;43.508;1.504;2023-05-10T15:16:19;16.60;99.90
34766;DHT22;20984;43.508;1.504;2023-05-10T15:18:45;17.00;99.90
34766;DHT22;20984;43.508;1.504;2023-05-10T15:21:11;17.40;99.90
34766;DHT22;20984;43.508;1.504;2023-05-10T15:23:36;17.40;99.90
34766;DHT22;20984;43.508;1.504;2023-05-10T15:26:02;17.60;99.90
34766;DHT22;20984;43.508;1.504;2023-05-10T15:28:28;17.70;99.90
34766;DHT22;20984;43.508;1.504;2023-05-10T15:30:54;18.00;99.90
34766;DHT22;20984;43.508;1.504;2023-05-10T15:33:20;18.00;99.90
34766;DHT22;20984;43.508;1.504;2023-05-10T15:35:45;17.60;99.90
34766;DHT22;20984;43.508;1.504;2023-05-10T15:38:11;17.20;99.90
34766;DHT22;20984;43.508;1.504;2023-05-10T15:40:37;16.80;99.90
34766;DHT22;20984;43.508;1.504;2023-05-10T15:43:02;16.30;99.90
34766;DHT22;20984;43.508;1.504;2023-05-10T15:45:28;15.30;99.90
34766;DHT22;20984;43.508;1.504;2023-05-10T15:47:54;14.60;99.90
34766;DHT22;20984;43.508;1.504;2023-05-10T15:50:20;14.40;99.90
34766;DHT22;20984;43.508;1.504;2023-05-10T15:52:46;14.80;99.90
34766;DHT22;20984;43.508;1.504;2023-05-10T15:55:12;15.10;99.90
34766;DHT22;20984;43.508;1.504;2023-05-10T15:57:39;14.90;99.90
34766;DHT22;20984;43.508;1.504;2023-05-10T16:00:07;14.80;99.90
34766;DHT22;20984;43.508;1.504;2023-05-10T16:02:33;14.90;99.90